sensor_id;sensor_type;location;lat;lon;timestamp;P1;P4;P2;P0;N10;N4;N25;N1;N05;TS
71906;SPS30;59781;52.090;5.030;2023-11-19T00:00:22;2.68;2.64;2.43;2.05;16.37;16.35;16.30;15.95;13.13;0.67
71906;SPS30;59781;52.090;5.030;2023-11-19T00:02:48;3.10;3.05;2.80;2.35;18.82;18.80;18.74;18.33;15.07;0.66
71906;SPS30;59781;52.090;5.030;2023-11-19T00:05:14;3.24;3.18;2.88;2.37;18.96;18.95;18.88;18.40;15.04;0.68
71906;SPS30;59781;52.090;5.030;2023-11-19T00:07:40;3.63;3.55;3.19;2.60;20.79;20.77;20.69;20.13;16.39;0.69
71906;SPS30;59781;52.090;5.030;2023-11-19T00:10:09;3.61;3.52;3.05;2.34;18.80;18.78;18.68;17.99;14.39;0.73
71906;SPS30;59781;52.090;5.030;2023-11-19T00:12:44;4.20;4.09;3.52;2.67;21.43;21.40;21.27;20.45;16.29;0.74
71906;SPS30;59781;52.090;5.030;2023-11-19T00:15:13;4.12;3.99;3.37;2.47;19.80;19.78;19.64;18.76;14.75;0.75
71906;SPS30;59781;52.090;5.030;2023-11-19T00:17:42;4.40;4.27;3.63;2.67;21.46;21.44;21.29;20.37;16.06;0.74
71906;SPS30;59781;52.090;5.030;2023-11-19T00:20:14;4.50;4.36;3.67;2.67;21.40;21.37;21.22;20.24;15.88;0.76
71906;SPS30;59781;52.090;5.030;2023-11-19T00:22:47;4.53;4.40;3.71;2.71;21.74;21.71;21.56;20.58;16.17;0.77
71906;SPS30;59781;52.090;5.030;2023-11-19T00:25:19;4.54;4.40;3.69;2.66;21.39;21.36;21.20;20.20;15.81;0.77
71906;SPS30;59781;52.090;5.030;2023-11-19T00:27:50;4.88;4.71;3.88;2.69;21.65;21.62;21.44;20.28;15.64;0.80
71906;SPS30;59781;52.090;5.030;2023-11-19T00:30:16;5.07;4.89;4.00;2.74;22.06;22.03;21.83;20.60;15.81;0.80
71906;SPS30;59781;52.090;5.030;2023-11-19T00:32:42;5.01;4.84;3.96;2.71;21.83;21.79;21.60;20.38;15.63;0.81
71906;SPS30;59781;52.090;5.030;2023-11-19T00:35:08;5.57;5.37;4.35;2.93;23.53;23.49;23.26;21.86;16.64;0.83
71906;SPS30;59781;52.090;5.030;2023-11-19T00:37:39;5.64;5.44;4.45;3.04;24.47;24.43;24.21;22.83;17.50;0.81
71906;SPS30;59781;52.090;5.030;2023-11-19T00:40:05;5.48;5.28;4.30;2.93;23.53;23.50;23.28;21.93;16.77;0.81
71906;SPS30;59781;52.090;5.030;2023-11-19T00:42:31;5.61;5.41;4.38;2.94;23.64;23.60;23.38;21.96;16.70;0.80
71906;SPS30;59781;52.090;5.030;2023-11-19T00:44:57;5.83;5.61;4.51;2.97;23.94;23.89;23.65;22.14;16.72;0.82
71906;SPS30;59781;52.090;5.030;2023-11-19T00:47:23;6.78;6.50;5.13;3.24;26.14;26.09;25.79;23.92;17.73;0.86
71906;SPS30;59781;52.090;5.030;2023-11-19T00:49:49;7.21;6.91;5.41;3.36;27.11;27.05;26.73;24.70;18.14;0.88
71906;SPS30;59781;52.090;5.030;2023-11-19T00:52:15;6.33;6.07;4.78;3.00;24.17;24.12;23.84;22.08;16.30;0.88
71906;SPS30;59781;52.090;5.030;2023-11-19T00:54:42;6.75;6.46;5.06;3.13;25.27;25.21;24.90;23.00;16.88;0.88
71906;SPS30;59781;52.090;5.030;2023-11-19T00:57:08;6.21;5.95;4.65;2.88;23.24;23.19;22.91;21.15;15.52;0.86
71906;SPS30;59781;52.090;5.030;2023-11-19T00:59:34;7.17;6.86;5.30;3.20;25.83;25.77;25.43;23.34;16.90;0.89
71906;SPS30;59781;52.090;5.030;2023-11-19T01:01:59;8.06;7.69;5.83;3.34;26.95;26.87;26.47;23.99;16.88;0.92
71906;SPS30;59781;52.090;5.030;2023-11-19T01:04:33;7.64;7.29;5.56;3.24;26.18;26.11;25.74;23.42;16.64;0.91
71906;SPS30;59781;52.090;5.030;2023-11-19T01:07:03;8.06;7.70;5.92;3.52;28.43;28.36;27.98;25.59;18.39;0.91
71906;SPS30;59781;52.090;5.030;2023-11-19T01:09:30;8.06;7.69;5.82;3.33;26.91;26.84;26.44;23.95;16.84;0.93
71906;SPS30;59781;52.090;5.030;2023-11-19T01:12:00;8.42;8.04;6.09;3.50;28.23;28.16;27.74;25.15;17.71;0.93
71906;SPS30;59781;52.090;5.030;2023-11-19T01:14:27;8.29;7.91;6.00;3.45;27.90;27.83;27.42;24.88;17.55;0.93
71906;SPS30;59781;52.090;5.030;2023-11-19T01:16:54;9.41;8.97;6.76;3.82;30.86;30.78;30.30;27.37;19.10;0.94
71906;SPS30;59781;52.090;5.030;2023-11-19T01:19:20;8.28;7.90;6.01;3.47;28.05;27.97;27.56;25.04;17.71;0.93
71906;SPS30;59781;52.090;5.030;2023-11-19T01:21:47;8.79;8.37;6.27;3.48;28.13;28.05;27.60;24.81;17.13;0.95
71906;SPS30;59781;52.090;5.030;2023-11-19T01:24:14;9.09;8.65;6.48;3.60;29.07;28.99;28.52;25.63;17.70;0.95
71906;SPS30;59781;52.090;5.030;2023-11-19T01:26:41;8.57;8.16;6.12;3.41;27.53;27.45;27.01;24.30;16.81;0.95
71906;SPS30;59781;52.090;5.030;2023-11-19T01:29:13;9.02;8.59;6.42;3.53;28.59;28.50;28.03;25.15;17.29;0.95
71906;SPS30;59781;52.090;5.030;2023-11-19T01:31:43;8.99;8.56;6.44;3.60;29.10;29.02;28.56;25.73;17.86;0.94
71906;SPS30;59781;52.090;5.030;2023-11-19T01:34:12;8.78;8.37;6.31;3.56;28.76;28.69;28.24;25.50;17.78;0.93
71906;SPS30;59781;52.090;5.030;2023-11-19T01:36:37;9.18;8.74;6.53;3.59;29.02;28.93;28.45;25.52;17.52;0.94
71906;SPS30;59781;52.090;5.030;2023-11-19T01:39:04;9.13;8.69;6.53;3.65;29.54;29.46;28.99;26.12;18.13;0.94
71906;SPS30;59781;52.090;5.030;2023-11-19T01:41:36;9.72;9.25;6.91;3.80;30.71;30.62;30.12;27.00;18.54;0.95
71906;SPS30;59781;52.090;5.030;2023-11-19T01:44:05;10.43;9.93;7.40;4.04;32.71;32.62;32.07;28.72;19.65;0.94
71906;SPS30;59781;52.090;5.030;2023-11-19T01:46:31;9.01;8.60;6.51;3.72;30.08;30.00;29.55;26.77;18.82;0.93
71906;SPS30;59781;52.090;5.030;2023-11-19T01:48:59;9.08;8.66;6.52;3.67;29.69;29.61;29.15;26.30;18.33;0.94
71906;SPS30;59781;52.090;5.030;2023-11-19T01:51:26;9.53;9.08;6.83;3.84;31.00;30.92;30.43;27.44;19.08;0.94
71906;SPS30;59781;52.090;5.030;2023-11-19T01:53:53;9.24;8.81;6.68;3.82;30.88;30.80;30.34;27.49;19.34;0.93
71906;SPS30;59781;52.090;5.030;2023-11-19T01:56:22;8.93;8.52;6.50;3.78;30.55;30.47;30.04;27.33;19.41;0.93
71906;SPS30;59781;52.090;5.030;2023-11-19T01:58:53;8.93;8.52;6.49;3.76;30.38;30.31;29.87;27.15;19.24;0.92
71906;SPS30;59781;52.090;5.030;2023-11-19T02:01:21;9.77;9.30;6.98;3.89;31.43;31.34;30.84;27.75;19.21;0.95
71906;SPS30;59781;52.090;5.030;2023-11-19T02:03:47;10.68;10.16;7.55;4.10;33.18;33.08;32.52;29.07;19.80;0.96
71906;SPS30;59781;52.090;5.030;2023-11-19T02:06:13;9.83;9.35;6.96;3.79;30.63;30.54;30.02;26.85;18.31;0.95
71906;SPS30;59781;52.090;5.030;2023-11-19T02:08:40;11.11;10.56;7.82;4.19;33.88;33.78;33.18;29.55;19.95;0.97
71906;SPS30;59781;52.090;5.030;2023-11-19T02:11:06;10.34;9.83;7.27;3.88;31.42;31.33;30.77;27.39;18.46;0.96
71906;SPS30;59781;52.090;5.030;2023-11-19T02:13:32;11.07;10.52;7.77;4.13;33.47;33.36;32.77;29.13;19.58;0.98
71906;SPS30;59781;52.090;5.030;2023-11-19T02:16:01;10.20;9.71;7.27;4.03;32.55;32.46;31.93;28.69;19.78;0.95
71906;SPS30;59781;52.090;5.030;2023-11-19T02:18:28;9.57;9.11;6.82;3.77;30.49;30.41;29.91;26.87;18.52;0.94
71906;SPS30;59781;52.090;5.030;2023-11-19T02:20:55;9.92;9.47;7.20;4.17;33.69;33.60;33.11;30.09;21.31;0.90
71906;SPS30;59781;52.090;5.030;2023-11-19T02:23:26;10.32;9.85;7.46;4.27;34.48;34.39;33.87;30.69;21.58;0.91
71906;SPS30;59781;52.090;5.030;2023-11-19T02:25:59;10.60;10.09;7.57;4.22;34.08;33.98;33.44;30.09;20.82;0.94
71906;SPS30;59781;52.090;5.030;2023-11-19T02:28:36;9.17;8.74;6.61;3.75;30.29;30.21;29.74;26.89;18.82;0.94
71906;SPS30;59781;52.090;5.030;2023-11-19T02:31:02;9.28;8.86;6.74;3.90;31.46;31.38;30.92;28.09;19.87;0.93
71906;SPS30;59781;52.090;5.030;2023-11-19T02:33:35;10.54;10.04;7.54;4.21;34.07;33.97;33.43;30.11;20.88;0.96
71906;SPS30;59781;52.090;5.030;2023-11-19T02:36:03;11.65;11.08;8.24;4.46;36.10;36.00;35.38;31.61;21.50;1.00
71906;SPS30;59781;52.090;5.030;2023-11-19T02:38:30;10.93;10.39;7.72;4.18;33.84;33.74;33.16;29.62;20.14;1.00
71906;SPS30;59781;52.090;5.030;2023-11-19T02:40:56;11.93;11.35;8.43;4.56;36.93;36.82;36.19;32.33;21.99;0.98
71906;SPS30;59781;52.090;5.030;2023-11-19T02:43:22;10.90;10.40;7.89;4.52;36.53;36.43;35.89;32.54;22.91;0.93
71906;SPS30;59781;52.090;5.030;2023-11-19T02:45:48;11.42;10.87;8.14;4.51;36.50;36.40;35.81;32.19;22.22;0.95
71906;SPS30;59781;52.090;5.030;2023-11-19T02:48:14;11.07;10.53;7.85;4.30;34.74;34.64;34.06;30.51;20.88;0.97
71906;SPS30;59781;52.090;5.030;2023-11-19T02:50:44;12.75;12.13;9.05;4.96;40.10;39.98;39.31;35.22;24.13;0.99
71906;SPS30;59781;52.090;5.030;2023-11-19T02:53:09;11.86;11.30;8.50;4.76;38.50;38.40;37.79;34.07;23.67;0.96
71906;SPS30;59781;52.090;5.030;2023-11-19T02:55:35;11.23;10.69;8.02;4.46;36.03;35.93;35.35;31.79;21.98;0.95
71906;SPS30;59781;52.090;5.030;2023-11-19T02:58:04;12.58;11.95;8.83;4.69;38.00;37.88;37.21;33.07;22.23;1.00
71906;SPS30;59781;52.090;5.030;2023-11-19T03:00:39;11.79;11.21;8.33;4.52;36.54;36.43;35.81;31.99;21.77;0.98
71906;SPS30;59781;52.090;5.030;2023-11-19T03:03:12;12.02;11.45;8.60;4.81;38.87;38.76;38.14;34.36;23.84;0.95
71906;SPS30;59781;52.090;5.030;2023-11-19T03:05:47;12.28;11.70;8.79;4.92;39.78;39.67;39.04;35.17;24.42;0.96
71906;SPS30;59781;52.090;5.030;2023-11-19T03:08:14;10.50;10.02;7.62;4.40;35.52;35.43;34.91;31.70;22.41;0.95
71906;SPS30;59781;52.090;5.030;2023-11-19T03:10:41;12.03;11.43;8.42;4.45;36.01;35.90;35.25;31.27;20.92;1.01
71906;SPS30;59781;52.090;5.030;2023-11-19T03:13:09;11.93;11.36;8.49;4.68;37.87;37.76;37.15;33.34;22.93;0.97
71906;SPS30;59781;52.090;5.030;2023-11-19T03:15:39;13.12;12.46;9.18;4.85;39.29;39.17;38.46;34.13;22.84;1.01
71906;SPS30;59781;52.090;5.030;2023-11-19T03:18:06;14.04;13.33;9.77;5.07;41.08;40.95;40.18;35.48;23.45;1.01
71906;SPS30;59781;52.090;5.030;2023-11-19T03:20:32;12.98;12.33;9.04;4.70;38.12;37.99;37.28;32.94;21.82;1.00
71906;SPS30;59781;52.090;5.030;2023-11-19T03:22:58;13.61;12.92;9.45;4.88;39.59;39.46;38.71;34.13;22.49;1.02
71906;SPS30;59781;52.090;5.030;2023-11-19T03:25:27;14.20;13.50;9.99;5.35;43.32;43.19;42.43;37.79;25.51;1.01
71906;SPS30;59781;52.090;5.030;2023-11-19T03:27:58;12.55;11.91;8.70;4.49;36.35;36.23;35.54;31.32;20.59;1.03
71906;SPS30;59781;52.090;5.030;2023-11-19T03:30:26;12.36;11.75;8.71;4.68;37.89;37.77;37.12;33.09;22.39;0.98
71906;SPS30;59781;52.090;5.030;2023-11-19T03:32:53;11.94;11.37;8.49;4.67;37.79;37.68;37.06;33.24;22.84;0.95
71906;SPS30;59781;52.090;5.030;2023-11-19T03:35:20;10.75;10.24;7.70;4.32;34.89;34.79;34.24;30.86;21.44;0.94
71906;SPS30;59781;52.090;5.030;2023-11-19T03:37:47;11.65;11.09;8.31;4.62;37.31;37.21;36.61;32.92;22.74;0.95
71906;SPS30;59781;52.090;5.030;2023-11-19T03:40:12;11.18;10.64;7.97;4.42;35.76;35.66;35.08;31.54;21.77;0.95
71906;SPS30;59781;52.090;5.030;2023-11-19T03:42:38;11.80;11.22;8.33;4.50;36.38;36.28;35.65;31.82;21.60;0.97
71906;SPS30;59781;52.090;5.030;2023-11-19T03:45:05;10.77;10.27;7.78;4.45;35.93;35.83;35.29;31.97;22.47;0.92
71906;SPS30;59781;52.090;5.030;2023-11-19T03:47:35;10.60;10.09;7.52;4.11;33.22;33.12;32.57;29.16;19.94;0.96
71906;SPS30;59781;52.090;5.030;2023-11-19T03:50:01;11.71;11.13;8.23;4.38;35.47;35.36;34.73;30.89;20.78;0.98
71906;SPS30;59781;52.090;5.030;2023-11-19T03:52:28;12.31;11.70;8.64;4.61;37.32;37.21;36.55;32.52;21.89;0.98
71906;SPS30;59781;52.090;5.030;2023-11-19T03:54:54;11.73;11.17;8.35;4.61;37.30;37.19;36.58;32.84;22.61;0.97
71906;SPS30;59781;52.090;5.030;2023-11-19T03:57:22;10.95;10.42;7.76;4.23;34.24;34.14;33.56;30.04;20.52;0.99
71906;SPS30;59781;52.090;5.030;2023-11-19T03:59:48;12.94;12.29;9.05;4.77;38.63;38.51;37.81;33.53;22.40;1.00
71906;SPS30;59781;52.090;5.030;2023-11-19T04:02:14;12.10;11.52;8.60;4.72;38.19;38.08;37.45;33.57;23.03;0.98
71906;SPS30;59781;52.090;5.030;2023-11-19T04:04:41;12.04;11.44;8.45;4.49;36.37;36.26;35.61;31.65;21.27;1.01
71906;SPS30;59781;52.090;5.030;2023-11-19T04:07:07;12.78;12.13;8.93;4.70;38.07;37.95;37.25;33.02;22.04;1.01
71906;SPS30;59781;52.090;5.030;2023-11-19T04:09:33;12.93;12.27;9.00;4.69;38.01;37.89;37.18;32.87;21.78;1.01
71906;SPS30;59781;52.090;5.030;2023-11-19T04:11:59;13.55;12.84;9.31;4.68;37.92;37.79;37.03;32.38;20.89;1.04
71906;SPS30;59781;52.090;5.030;2023-11-19T04:14:26;14.45;13.70;9.97;5.07;41.14;41.00;40.19;35.28;22.98;1.02
71906;SPS30;59781;52.090;5.030;2023-11-19T04:16:52;13.98;13.27;9.75;5.09;41.25;41.12;40.36;35.70;23.71;0.99
71906;SPS30;59781;52.090;5.030;2023-11-19T04:19:19;13.13;12.46;9.13;4.74;38.42;38.30;37.58;33.19;21.94;1.00
71906;SPS30;59781;52.090;5.030;2023-11-19T04:21:45;14.60;13.85;10.09;5.15;41.71;41.57;40.76;35.81;23.36;1.01
71906;SPS30;59781;52.090;5.030;2023-11-19T04:24:11;14.98;14.18;10.19;4.97;40.33;40.18;39.32;34.08;21.47;1.06
71906;SPS30;59781;52.090;5.030;2023-11-19T04:26:42;14.82;14.04;10.15;5.05;41.01;40.86;40.03;34.91;22.37;1.04
71906;SPS30;59781;52.090;5.030;2023-11-19T04:29:13;12.56;11.94;8.81;4.68;37.93;37.81;37.13;33.00;22.17;0.99
71906;SPS30;59781;52.090;5.030;2023-11-19T04:31:42;11.85;11.27;8.37;4.52;36.58;36.47;35.84;32.00;21.73;0.98
71906;SPS30;59781;52.090;5.030;2023-11-19T04:34:12;11.95;11.37;8.49;4.66;37.69;37.58;36.96;33.13;22.73;0.98
71906;SPS30;59781;52.090;5.030;2023-11-19T04:36:38;13.47;12.80;9.48;5.08;41.09;40.96;40.24;35.84;24.20;1.00
71906;SPS30;59781;52.090;5.030;2023-11-19T04:39:04;13.07;12.41;9.10;4.74;38.43;38.30;37.59;33.23;22.02;1.01
71906;SPS30;59781;52.090;5.030;2023-11-19T04:41:35;11.92;11.31;8.28;4.30;34.80;34.69;34.04;30.04;19.84;1.01
71906;SPS30;59781;52.090;5.030;2023-11-19T04:44:01;12.64;12.00;8.84;4.66;37.76;37.64;36.96;32.78;21.90;0.99
71906;SPS30;59781;52.090;5.030;2023-11-19T04:46:27;13.07;12.39;9.03;4.61;37.38;37.25;36.53;32.10;20.96;1.02
71906;SPS30;59781;52.090;5.030;2023-11-19T04:48:53;14.03;13.30;9.64;4.84;39.26;39.12;38.34;33.52;21.62;1.05
71906;SPS30;59781;52.090;5.030;2023-11-19T04:51:19;12.64;11.98;8.67;4.32;35.08;34.96;34.24;29.89;19.18;1.06
71906;SPS30;59781;52.090;5.030;2023-11-19T04:53:44;12.28;11.65;8.47;4.30;34.88;34.76;34.07;29.89;19.44;1.03
71906;SPS30;59781;52.090;5.030;2023-11-19T04:56:10;14.05;13.32;9.66;4.86;39.43;39.29;38.50;33.69;21.76;1.04
71906;SPS30;59781;52.090;5.030;2023-11-19T04:58:37;12.52;11.87;8.65;4.42;35.81;35.69;34.99;30.75;20.08;1.03
71906;SPS30;59781;52.090;5.030;2023-11-19T05:01:03;11.99;11.38;8.32;4.29;34.79;34.68;34.02;29.98;19.73;1.02
71906;SPS30;59781;52.090;5.030;2023-11-19T05:03:32;12.24;11.61;8.46;4.33;35.07;34.95;34.28;30.13;19.70;1.02
71906;SPS30;59781;52.090;5.030;2023-11-19T05:05:58;12.65;12.00;8.75;4.47;36.26;36.14;35.44;31.16;20.37;1.03
71906;SPS30;59781;52.090;5.030;2023-11-19T05:08:24;12.84;12.21;9.04;4.85;39.24;39.12;38.44;34.24;23.14;1.00
71906;SPS30;59781;52.090;5.030;2023-11-19T05:10:50;12.03;11.43;8.41;4.43;35.90;35.79;35.14;31.16;20.81;1.01
71906;SPS30;59781;52.090;5.030;2023-11-19T05:13:16;12.60;11.97;8.79;4.60;37.28;37.16;36.48;32.29;21.47;1.01
71906;SPS30;59781;52.090;5.030;2023-11-19T05:15:42;15.18;14.41;10.59;5.55;44.96;44.81;43.99;38.94;25.91;1.00
71906;SPS30;59781;52.090;5.030;2023-11-19T05:18:08;11.69;11.11;8.20;4.35;35.19;35.08;34.46;30.60;20.53;1.01
71906;SPS30;59781;52.090;5.030;2023-11-19T05:20:34;12.83;12.18;8.94;4.66;37.76;37.64;36.94;32.66;21.66;1.02
71906;SPS30;59781;52.090;5.030;2023-11-19T05:23:00;13.80;13.09;9.53;4.85;39.35;39.22;38.45;33.77;22.01;1.05
71906;SPS30;59781;52.090;5.030;2023-11-19T05:25:26;14.33;13.59;9.89;5.02;40.69;40.55;39.75;34.87;22.68;1.03
71906;SPS30;59781;52.090;5.030;2023-11-19T05:27:52;13.81;13.10;9.58;4.94;40.06;39.93;39.17;34.52;22.72;1.01
71906;SPS30;59781;52.090;5.030;2023-11-19T05:30:18;12.65;12.01;8.82;4.63;37.47;37.35;36.66;32.46;21.60;1.01
71906;SPS30;59781;52.090;5.030;2023-11-19T05:32:44;13.11;12.46;9.20;4.88;39.54;39.42;38.72;34.40;23.10;1.00
71906;SPS30;59781;52.090;5.030;2023-11-19T05:35:11;13.42;12.76;9.42;5.00;40.50;40.37;39.65;35.24;23.67;0.99
71906;SPS30;59781;52.090;5.030;2023-11-19T05:37:37;12.53;11.91;8.78;4.64;37.57;37.46;36.78;32.64;21.86;0.99
71906;SPS30;59781;52.090;5.030;2023-11-19T05:40:03;12.45;11.84;8.84;4.86;39.27;39.16;38.51;34.53;23.69;0.97
71906;SPS30;59781;52.090;5.030;2023-11-19T05:42:37;12.47;11.86;8.80;4.74;38.38;38.26;37.60;33.55;22.75;1.00
71906;SPS30;59781;52.090;5.030;2023-11-19T05:45:03;12.42;11.77;8.51;4.24;34.38;34.26;33.56;29.27;18.76;1.04
71906;SPS30;59781;52.090;5.030;2023-11-19T05:47:29;13.22;12.56;9.23;4.85;39.25;39.12;38.41;34.01;22.66;0.98
71906;SPS30;59781;52.090;5.030;2023-11-19T05:49:54;12.21;11.61;8.62;4.67;37.76;37.65;37.00;33.04;22.46;0.95
71906;SPS30;59781;52.090;5.030;2023-11-19T05:52:20;12.81;12.18;9.02;4.84;39.19;39.07;38.39;34.21;23.13;0.97
71906;SPS30;59781;52.090;5.030;2023-11-19T05:54:47;12.65;12.01;8.82;4.62;37.40;37.28;36.60;32.38;21.53;0.98
71906;SPS30;59781;52.090;5.030;2023-11-19T05:57:17;11.57;10.99;8.08;4.25;34.39;34.28;33.65;29.81;19.87;0.98
71906;SPS30;59781;52.090;5.030;2023-11-19T05:59:48;12.16;11.55;8.51;4.50;36.40;36.29;35.63;31.61;21.14;0.99
71906;SPS30;59781;52.090;5.030;2023-11-19T06:02:13;12.43;11.80;8.69;4.58;37.07;36.95;36.28;32.16;21.48;1.00
71906;SPS30;59781;52.090;5.030;2023-11-19T06:04:39;13.32;12.64;9.22;4.73;38.36;38.24;37.50;33.00;21.63;1.02
71906;SPS30;59781;52.090;5.030;2023-11-19T06:07:05;13.39;12.70;9.28;4.78;38.75;38.63;37.89;33.38;21.94;1.02
71906;SPS30;59781;52.090;5.030;2023-11-19T06:09:30;12.06;11.45;8.42;4.43;35.87;35.75;35.10;31.10;20.74;1.01
71906;SPS30;59781;52.090;5.030;2023-11-19T06:11:59;13.26;12.58;9.18;4.71;38.15;38.02;37.29;32.81;21.50;1.03
71906;SPS30;59781;52.090;5.030;2023-11-19T06:14:27;13.21;12.53;9.16;4.72;38.22;38.10;37.37;32.92;21.64;1.02
71906;SPS30;59781;52.090;5.030;2023-11-19T06:16:52;14.11;13.37;9.69;4.87;39.49;39.36;38.57;33.73;21.76;1.04
71906;SPS30;59781;52.090;5.030;2023-11-19T06:19:18;12.97;12.30;8.96;4.57;37.02;36.89;36.17;31.77;20.72;1.02
71906;SPS30;59781;52.090;5.030;2023-11-19T06:21:44;12.34;11.71;8.55;4.39;35.57;35.46;34.77;30.61;20.07;1.02
71906;SPS30;59781;52.090;5.030;2023-11-19T06:24:09;12.35;11.70;8.49;4.28;34.70;34.58;33.89;29.66;19.18;1.04
71906;SPS30;59781;52.090;5.030;2023-11-19T06:26:35;13.44;12.76;9.35;4.85;39.32;39.19;38.46;33.95;22.44;1.02
71906;SPS30;59781;52.090;5.030;2023-11-19T06:29:01;13.66;12.98;9.56;5.06;40.95;40.82;40.09;35.58;23.82;1.00
71906;SPS30;59781;52.090;5.030;2023-11-19T06:31:26;11.87;11.30;8.46;4.67;37.77;37.66;37.04;33.26;22.91;0.95
71906;SPS30;59781;52.090;5.030;2023-11-19T06:33:52;12.99;12.34;9.09;4.80;38.88;38.76;38.06;33.77;22.59;0.98
71906;SPS30;59781;52.090;5.030;2023-11-19T06:36:18;13.50;12.79;9.26;4.63;37.55;37.42;36.66;32.01;20.57;1.02
71906;SPS30;59781;52.090;5.030;2023-11-19T06:38:43;14.85;14.06;10.08;4.89;39.69;39.54;38.69;33.47;20.98;1.06
71906;SPS30;59781;52.090;5.030;2023-11-19T06:41:09;13.09;12.39;8.90;4.34;35.24;35.11;34.36;29.78;18.77;1.05
71906;SPS30;59781;52.090;5.030;2023-11-19T06:43:36;12.62;11.95;8.61;4.23;34.37;34.24;33.52;29.13;18.49;1.04
71906;SPS30;59781;52.090;5.030;2023-11-19T06:46:02;13.26;12.56;9.09;4.53;36.75;36.62;35.87;31.30;20.07;1.03
71906;SPS30;59781;52.090;5.030;2023-11-19T06:48:33;13.67;12.95;9.38;4.71;38.17;38.04;37.27;32.58;20.99;1.02
71906;SPS30;59781;52.090;5.030;2023-11-19T06:50:59;12.43;11.78;8.58;4.37;35.44;35.32;34.63;30.41;19.83;1.03
71906;SPS30;59781;52.090;5.030;2023-11-19T06:53:25;13.57;12.85;9.24;4.52;36.73;36.59;35.82;31.08;19.65;1.05
71906;SPS30;59781;52.090;5.030;2023-11-19T06:55:53;13.71;13.00;9.44;4.76;38.59;38.46;37.69;33.00;21.35;1.02
71906;SPS30;59781;52.090;5.030;2023-11-19T06:58:19;12.61;11.97;8.74;4.49;36.35;36.23;35.54;31.28;20.51;1.02
71906;SPS30;59781;52.090;5.030;2023-11-19T07:00:45;11.80;11.20;8.22;4.28;34.68;34.57;33.92;29.98;19.87;1.01
71906;SPS30;59781;52.090;5.030;2023-11-19T07:03:12;12.68;12.03;8.78;4.50;36.47;36.34;35.64;31.36;20.53;1.02
71906;SPS30;59781;52.090;5.030;2023-11-19T07:05:38;12.21;11.58;8.47;4.38;35.47;35.35;34.68;30.58;20.14;1.01
71906;SPS30;59781;52.090;5.030;2023-11-19T07:08:05;12.33;11.69;8.46;4.22;34.24;34.12;33.42;29.17;18.73;1.05
71906;SPS30;59781;52.090;5.030;2023-11-19T07:10:32;12.96;12.27;8.84;4.35;35.31;35.18;34.44;29.93;19.00;1.05
71906;SPS30;59781;52.090;5.030;2023-11-19T07:12:59;13.32;12.60;9.00;4.30;34.96;34.83;34.06;29.34;18.19;1.07
71906;SPS30;59781;52.090;5.030;2023-11-19T07:15:25;15.30;14.47;10.33;4.93;40.04;39.89;38.99;33.57;20.76;1.08
71906;SPS30;59781;52.090;5.030;2023-11-19T07:17:51;13.27;12.55;8.97;4.29;34.86;34.73;33.96;29.26;18.15;1.08
71906;SPS30;59781;52.090;5.030;2023-11-19T07:20:19;14.28;13.51;9.68;4.67;37.90;37.75;36.93;31.90;19.91;1.07
71906;SPS30;59781;52.090;5.030;2023-11-19T07:22:45;12.89;12.21;8.81;4.35;35.29;35.17;34.43;29.96;19.07;1.05
71906;SPS30;59781;52.090;5.030;2023-11-19T07:25:12;13.48;12.76;9.18;4.49;36.47;36.34;35.57;30.86;19.51;1.05
71906;SPS30;59781;52.090;5.030;2023-11-19T07:27:38;13.46;12.75;9.21;4.57;37.10;36.97;36.21;31.56;20.18;1.02
71906;SPS30;59781;52.090;5.030;2023-11-19T07:30:05;12.27;11.62;8.39;4.16;33.74;33.62;32.93;28.68;18.31;1.01
71906;SPS30;59781;52.090;5.030;2023-11-19T07:32:32;13.38;12.70;9.28;4.79;38.81;38.68;37.95;33.44;22.01;0.99
71906;SPS30;59781;52.090;5.030;2023-11-19T07:34:58;11.30;10.72;7.86;4.08;33.09;32.98;32.36;28.58;18.90;1.00
71906;SPS30;59781;52.090;5.030;2023-11-19T07:37:24;12.44;11.82;8.67;4.53;36.69;36.57;35.90;31.75;21.07;1.00
71906;SPS30;59781;52.090;5.030;2023-11-19T07:39:50;12.04;11.42;8.32;4.25;34.44;34.32;33.66;29.57;19.31;1.02
71906;SPS30;59781;52.090;5.030;2023-11-19T07:42:16;12.48;11.83;8.57;4.31;34.92;34.80;34.10;29.82;19.23;1.04
71906;SPS30;59781;52.090;5.030;2023-11-19T07:44:43;13.21;12.52;9.09;4.58;37.18;37.05;36.31;31.79;20.57;1.03
71906;SPS30;59781;52.090;5.030;2023-11-19T07:47:09;11.68;11.08;8.11;4.20;34.00;33.89;33.25;29.33;19.34;1.01
71906;SPS30;59781;52.090;5.030;2023-11-19T07:49:35;12.16;11.53;8.36;4.19;34.02;33.90;33.21;29.04;18.72;1.03
71906;SPS30;59781;52.090;5.030;2023-11-19T07:52:01;13.17;12.50;9.11;4.66;37.78;37.66;36.93;32.47;21.23;1.00
71906;SPS30;59781;52.090;5.030;2023-11-19T07:54:28;13.62;12.91;9.37;4.73;38.34;38.21;37.45;32.79;21.22;1.02
71906;SPS30;59781;52.090;5.030;2023-11-19T07:56:54;12.30;11.66;8.48;4.30;34.85;34.73;34.04;29.85;19.39;1.02
71906;SPS30;59781;52.090;5.030;2023-11-19T07:59:20;12.11;11.50;8.47;4.46;36.12;36.00;35.35;31.34;20.92;0.99
71906;SPS30;59781;52.090;5.030;2023-11-19T08:01:46;11.98;11.37;8.36;4.39;35.59;35.48;34.83;30.86;20.57;1.00
71906;SPS30;59781;52.090;5.030;2023-11-19T08:04:13;14.49;13.75;10.06;5.20;42.13;42.00;41.20;36.33;23.94;1.02
71906;SPS30;59781;52.090;5.030;2023-11-19T08:06:39;14.99;14.22;10.37;5.30;42.98;42.83;42.00;36.93;24.15;1.01
71906;SPS30;59781;52.090;5.030;2023-11-19T08:09:05;14.11;13.40;9.81;5.09;41.23;41.09;40.32;35.59;23.51;0.99
71906;SPS30;59781;52.090;5.030;2023-11-19T08:11:32;12.93;12.26;8.94;4.57;37.02;36.89;36.18;31.80;20.78;1.02
71906;SPS30;59781;52.090;5.030;2023-11-19T08:13:58;12.34;11.72;8.60;4.49;36.34;36.23;35.55;31.44;20.85;1.01
71906;SPS30;59781;52.090;5.030;2023-11-19T08:16:24;12.36;11.73;8.58;4.44;35.95;35.83;35.15;31.00;20.43;1.00
71906;SPS30;59781;52.090;5.030;2023-11-19T08:18:50;12.13;11.52;8.50;4.50;36.47;36.36;35.71;31.71;21.26;0.99
71906;SPS30;59781;52.090;5.030;2023-11-19T08:21:15;13.42;12.74;9.33;4.85;39.30;39.17;38.44;33.95;22.46;1.02
71906;SPS30;59781;52.090;5.030;2023-11-19T08:23:41;13.15;12.49;9.21;4.87;39.47;39.35;38.64;34.30;22.98;1.00
71906;SPS30;59781;52.090;5.030;2023-11-19T08:26:07;12.48;11.86;8.75;4.64;37.58;37.46;36.79;32.68;21.93;0.98
71906;SPS30;59781;52.090;5.030;2023-11-19T08:28:33;13.37;12.69;9.29;4.82;39.02;38.89;38.16;33.67;22.23;1.01
71906;SPS30;59781;52.090;5.030;2023-11-19T08:31:00;12.95;12.31;9.09;4.84;39.16;39.04;38.34;34.08;22.91;0.97
71906;SPS30;59781;52.090;5.030;2023-11-19T08:33:26;13.08;12.43;9.19;4.89;39.61;39.49;38.79;34.49;23.21;0.98
71906;SPS30;59781;52.090;5.030;2023-11-19T08:35:52;13.31;12.61;9.16;4.62;37.47;37.34;36.60;32.05;20.74;1.03
71906;SPS30;59781;52.090;5.030;2023-11-19T08:38:18;13.17;12.49;9.11;4.66;37.81;37.69;36.96;32.50;21.27;1.00
71906;SPS30;59781;52.090;5.030;2023-11-19T08:40:43;13.77;13.06;9.50;4.83;39.19;39.06;38.29;33.61;21.89;1.02
71906;SPS30;59781;52.090;5.030;2023-11-19T08:43:09;13.65;12.96;9.53;5.00;40.46;40.33;39.59;35.05;23.33;0.99
71906;SPS30;59781;52.090;5.030;2023-11-19T08:45:35;12.35;11.75;8.78;4.83;39.09;38.98;38.34;34.39;23.63;0.96
71906;SPS30;59781;52.090;5.030;2023-11-19T08:48:01;14.05;13.37;9.92;5.35;43.32;43.19;42.45;37.88;25.71;0.97
71906;SPS30;59781;52.090;5.030;2023-11-19T08:50:27;12.93;12.30;9.15;4.97;40.21;40.09;39.41;35.23;24.02;0.97
71906;SPS30;59781;52.090;5.030;2023-11-19T08:52:52;12.53;11.90;8.77;4.64;37.55;37.44;36.76;32.62;21.84;1.00
71906;SPS30;59781;52.090;5.030;2023-11-19T08:55:18;13.41;12.74;9.38;4.94;40.00;39.88;39.15;34.71;23.18;1.01
71906;SPS30;59781;52.090;5.030;2023-11-19T08:57:44;13.42;12.77;9.49;5.15;41.65;41.52;40.81;36.47;24.83;0.97
71906;SPS30;59781;52.090;5.030;2023-11-19T09:00:10;12.23;11.66;8.79;4.96;40.06;39.95;39.33;35.51;24.76;0.94
71906;SPS30;59781;52.090;5.030;2023-11-19T09:02:39;11.34;10.78;8.00;4.30;34.82;34.71;34.11;30.42;20.60;0.99